Time;durP1;ratioP1;P1;durP2;ratioP2;P2;SDS_P1;SDS_P2;PMS_P1;PMS_P2;Temp;Humidity;BMP_temperature;BMP_pressure;BME280_temperature;BME280_humidity;BME280_pressure;Samples;Min_cycle;Max_cycle;Signal;HPM_P1;HPM_P2
2023/06/16 00:00:33;;;;;;;7.47;4.50;;;;;;;16.97;80.23;100735.19;8309463;28;20504;-65
2023/06/16 00:04:35;;;;;;;10.73;5.03;;;;;;;17.16;79.81;100732.03;8308921;28;20411;-65
2023/06/16 00:08:35;;;;;;;11.85;4.80;;;;;;;17.32;78.51;100735.53;8334022;28;20045;-65
2023/06/16 00:12:36;;;;;;;6.55;4.88;;;;;;;16.95;80.52;100731.78;8307660;28;20036;-65
2023/06/16 00:16:37;;;;;;;7.28;4.68;;;;;;;17.08;79.30;100738.38;8310707;28;20200;-65
2023/06/16 00:20:37;;;;;;;7.70;5.15;;;;;;;17.06;79.49;100739.59;8308443;28;20040;-65
2023/06/16 00:24:38;;;;;;;8.27;5.28;;;;;;;17.23;78.64;100731.16;8307899;28;20070;-64
2023/06/16 00:28:38;;;;;;;8.88;6.25;;;;;;;16.64;82.03;100733.56;8306448;28;20042;-64
2023/06/16 00:32:40;;;;;;;11.68;6.40;;;;;;;16.50;83.43;100735.13;8310059;28;20076;-64
2023/06/16 00:36:40;;;;;;;10.90;5.90;;;;;;;16.39;85.74;100730.03;8307642;28;20072;-65
2023/06/16 00:40:40;;;;;;;10.20;6.28;;;;;;;16.74;82.84;100734.25;8307772;28;20104;-65
2023/06/16 00:44:41;;;;;;;8.55;6.28;;;;;;;16.32;85.11;100739.06;8309016;28;20088;-64
2023/06/16 00:48:41;;;;;;;8.80;6.25;;;;;;;16.86;82.25;100738.28;8305955;28;20045;-65
2023/06/16 00:52:42;;;;;;;8.25;5.05;;;;;;;16.89;80.60;100748.88;8307005;28;20408;-64
2023/06/16 00:56:43;;;;;;;7.00;5.07;;;;;;;16.47;82.25;100738.22;8309069;28;20040;-65
2023/06/16 01:00:46;;;;;;;8.98;5.95;;;;;;;16.22;83.47;100738.41;8308132;28;20041;-65
2023/06/16 01:04:48;;;;;;;7.65;5.68;;;;;;;16.11;85.27;100738.72;8306133;28;20523;-65
2023/06/16 01:08:59;;;;;;;10.90;6.68;;;;;;;16.35;82.84;100734.09;8306049;28;20044;-63
2023/06/16 01:13:11;;;;;;;11.52;6.32;;;;;;;16.33;82.66;100733.44;8306821;28;20041;-65
2023/06/16 01:17:15;;;;;;;15.85;6.75;;;;;;;16.45;81.53;100723.91;8307362;28;20037;-65
2023/06/16 01:21:28;;;;;;;16.60;6.50;;;;;;;16.33;82.37;100727.13;8303796;28;20037;-65
2023/06/16 01:25:31;;;;;;;12.07;6.50;;;;;;;16.18;83.79;100731.56;8303164;28;20037;-64
2023/06/16 01:29:36;;;;;;;9.90;6.18;;;;;;;16.11;85.00;100725.97;8306878;28;20069;-65
2023/06/16 01:33:39;;;;;;;12.38;6.05;;;;;;;16.40;82.24;100741.78;8306695;28;20059;-65
2023/06/16 01:37:41;;;;;;;11.00;5.90;;;;;;;15.53;85.63;100730.69;8306707;28;20570;-64
2023/06/16 01:41:42;;;;;;;16.33;7.63;;;;;;;15.33;87.89;100735.53;8307823;28;20498;-59
2023/06/16 01:45:44;;;;;;;9.60;6.68;;;;;;;15.34;87.28;100730.94;8305798;28;20050;-59
2023/06/16 01:49:44;;;;;;;10.60;6.38;;;;;;;14.96;90.70;100726.88;8307482;28;20519;-59
2023/06/16 01:53:45;;;;;;;10.77;7.32;;;;;;;14.95;90.78;100730.59;8304734;28;20539;-64
2023/06/16 01:57:47;;;;;;;13.25;7.18;;;;;;;15.55;88.22;100737.66;8303800;28;20049;-65
2023/06/16 02:01:52;;;;;;;14.90;7.50;;;;;;;15.39;87.76;100740.34;8307504;28;20038;-62
2023/06/16 02:05:53;;;;;;;9.27;7.43;;;;;;;15.07;89.25;100732.00;8305628;28;20510;-64
2023/06/16 02:09:54;;;;;;;13.02;8.25;;;;;;;15.15;89.71;100731.19;8307336;28;20077;-64
2023/06/16 02:13:55;;;;;;;10.20;7.30;;;;;;;15.29;88.69;100734.16;8306064;28;20518;-64
2023/06/16 02:17:57;;;;;;;14.35;7.47;;;;;;;15.47;87.21;100731.34;8305715;28;20467;-60
2023/06/16 02:21:58;;;;;;;13.88;7.88;;;;;;;15.47;87.78;100726.72;8304827;28;20044;-64
2023/06/16 02:26:00;;;;;;;10.30;7.22;;;;;;;15.56;86.56;100733.91;8305168;28;20408;-65
2023/06/16 02:30:01;;;;;;;12.00;8.13;;;;;;;15.01;90.32;100731.84;8306823;28;20099;-64
2023/06/16 02:34:01;;;;;;;8.02;6.80;;;;;;;15.07;88.67;100737.47;8305026;28;20084;-64
2023/06/16 02:38:02;;;;;;;14.57;7.15;;;;;;;15.11;89.77;100735.28;8306115;28;20128;-64
2023/06/16 02:42:03;;;;;;;13.75;7.40;;;;;;;14.83;90.92;100737.38;8306474;28;20451;-64
2023/06/16 02:46:03;;;;;;;16.23;7.15;;;;;;;14.51;91.96;100737.16;8322331;28;20481;-64
2023/06/16 02:50:05;;;;;;;13.10;8.32;;;;;;;14.65;93.09;100735.72;8310936;28;20061;-64
2023/06/16 02:54:07;;;;;;;12.18;7.38;;;;;;;14.48;93.69;100732.03;8303903;28;20057;-65
2023/06/16 02:58:07;;;;;;;15.00;8.23;;;;;;;14.81;92.14;100731.22;8304779;28;20041;-64
2023/06/16 03:02:09;;;;;;;11.70;8.20;;;;;;;14.80;91.82;100732.25;8304420;28;20045;-59
2023/06/16 03:06:20;;;;;;;13.38;8.82;;;;;;;14.92;91.16;100730.94;8307287;28;20044;-60
2023/06/16 03:10:21;;;;;;;12.38;9.50;;;;;;;14.96;90.30;100732.31;8312707;28;20042;-59
2023/06/16 03:14:35;;;;;;;11.70;8.60;;;;;;;14.75;90.99;100728.28;8310765;28;20030;-59
2023/06/16 03:18:46;;;;;;;13.82;7.82;;;;;;;14.83;91.76;100733.78;8310384;28;20531;-59
2023/06/16 03:22:47;;;;;;;12.73;8.18;;;;;;;14.40;94.33;100734.72;8310981;28;20042;-60
2023/06/16 03:26:47;;;;;;;14.57;8.38;;;;;;;14.40;94.44;100740.19;8308922;28;20053;-59
2023/06/16 03:30:53;;;;;;;10.80;8.00;;;;;;;14.47;92.41;100752.13;8294489;28;20041;-59
2023/06/16 03:35:09;;;;;;;12.90;9.00;;;;;;;14.74;91.12;100751.94;8322933;28;20112;-64
2023/06/16 03:39:10;;;;;;;16.38;9.50;;;;;;;14.72;91.05;100751.25;8322502;28;20038;-66
2023/06/16 03:43:13;;;;;;;11.52;9.45;;;;;;;14.75;91.54;100761.81;8309826;28;20033;-64
2023/06/16 03:47:14;;;;;;;16.95;9.60;;;;;;;14.77;91.13;100748.03;8308561;28;20096;-65
2023/06/16 03:51:16;;;;;;;16.75;9.98;;;;;;;14.49;93.84;100754.69;8308961;28;20038;-64
2023/06/16 03:55:17;;;;;;;13.65;9.18;;;;;;;14.62;92.58;100755.97;8309543;28;20400;-64
2023/06/16 03:59:18;;;;;;;17.95;8.02;;;;;;;14.40;93.88;100759.22;8311479;28;20116;-59
2023/06/16 04:03:19;;;;;;;14.35;8.25;;;;;;;14.57;92.61;100750.13;8309893;28;20454;-63
2023/06/16 04:07:21;;;;;;;12.35;8.35;;;;;;;14.66;91.89;100751.91;8309535;28;20146;-59
2023/06/16 04:11:26;;;;;;;10.27;8.75;;;;;;;14.57;93.62;100752.84;8303320;28;20049;-64
2023/06/16 04:15:27;;;;;;;14.27;8.65;;;;;;;14.60;94.39;100755.25;8312250;28;20037;-64
2023/06/16 04:19:28;;;;;;;24.05;9.80;;;;;;;14.84;92.60;100749.97;8309244;28;20053;-64
2023/06/16 04:23:29;;;;;;;15.50;8.77;;;;;;;14.93;92.21;100754.44;8311662;28;20038;-64
2023/06/16 04:27:32;;;;;;;22.15;9.93;;;;;;;15.34;89.75;100756.28;8305175;28;20042;-59
2023/06/16 04:31:35;;;;;;;28.65;10.80;;;;;;;15.43;89.98;100763.50;8304810;28;20258;-59
2023/06/16 04:35:39;;;;;;;24.35;9.98;;;;;;;15.42;89.08;100767.25;8308274;28;20103;-59
2023/06/16 04:39:40;;;;;;;23.08;8.23;;;;;;;15.42;88.43;100775.44;8308030;28;20120;-59
2023/06/16 04:43:43;;;;;;;14.48;8.35;;;;;;;15.51;88.68;100773.56;8308045;28;20049;-59
2023/06/16 04:47:44;;;;;;;18.13;8.90;;;;;;;15.85;87.69;100773.50;8307837;28;20069;-59
2023/06/16 04:51:45;;;;;;;16.52;8.02;;;;;;;16.10;85.49;100772.50;8306294;28;20058;-59
2023/06/16 04:55:45;;;;;;;17.67;10.05;;;;;;;16.29;85.21;100785.81;8308590;28;20041;-59
2023/06/16 04:59:45;;;;;;;16.48;8.98;;;;;;;16.54;84.45;100777.47;8304569;28;20129;-59
2023/06/16 05:03:46;;;;;;;14.57;8.05;;;;;;;16.85;85.27;100774.84;8306022;28;20096;-59
2023/06/16 05:07:47;;;;;;;13.10;8.13;;;;;;;17.14;82.29;100764.16;8311857;28;20068;-61
2023/06/16 05:11:48;;;;;;;14.23;8.27;;;;;;;17.40;82.16;100767.44;8305358;28;20617;-59
2023/06/16 05:15:49;;;;;;;13.98;7.93;;;;;;;17.86;81.57;100763.78;8306766;28;20049;-61
2023/06/16 05:19:49;;;;;;;14.10;8.43;;;;;;;18.16;82.44;100765.63;8307297;28;20112;-61
2023/06/16 05:23:52;;;;;;;17.08;8.77;;;;;;;18.53;79.93;100771.16;8300160;28;20049;-61
2023/06/16 05:27:53;;;;;;;20.88;8.10;;;;;;;18.59;79.03;100773.16;8299520;28;20385;-60
2023/06/16 05:31:54;;;;;;;26.65;8.68;;;;;;;19.06;77.32;100768.19;8305189;28;20053;-61
2023/06/16 05:35:56;;;;;;;14.45;8.07;;;;;;;19.40;74.17;100771.22;8303065;28;20530;-60
2023/06/16 05:39:57;;;;;;;17.10;8.88;;;;;;;19.66;74.91;100775.31;8305820;28;20389;-61
2023/06/16 05:43:58;;;;;;;21.08;9.95;;;;;;;19.96;75.17;100782.44;8300904;28;20056;-61
2023/06/16 05:47:59;;;;;;;17.67;9.35;;;;;;;20.02;74.74;100777.03;8303303;28;20128;-60
2023/06/16 05:52:03;;;;;;;20.63;9.65;;;;;;;20.64;72.54;100785.44;8303029;28;20045;-60
2023/06/16 05:56:05;;;;;;;21.73;8.30;;;;;;;20.91;70.35;100776.34;8302795;28;20044;-61
2023/06/16 06:00:07;;;;;;;15.38;7.90;;;;;;;20.81;71.60;100784.09;8305484;28;20131;-61
2023/06/16 06:04:20;;;;;;;14.43;7.07;;;;;;;21.39;67.76;100789.16;8302543;28;20045;-58
2023/06/16 06:08:24;;;;;;;20.08;6.47;;;;;;;21.82;63.24;100785.16;8303754;28;20512;-58
2023/06/16 06:12:25;;;;;;;14.98;7.00;;;;;;;22.03;62.95;100787.75;8302531;28;20061;-58
2023/06/16 06:16:27;;;;;;;17.80;6.95;;;;;;;22.06;62.75;100798.38;8302788;28;20046;-58
2023/06/16 06:20:27;;;;;;;23.48;6.68;;;;;;;22.10;61.71;100796.88;8304816;28;20035;-58
2023/06/16 06:24:28;;;;;;;23.23;6.55;;;;;;;22.13;61.00;100814.88;8302422;28;20489;-58
2023/06/16 06:28:30;;;;;;;14.63;5.38;;;;;;;22.46;60.83;100802.88;8302506;28;20149;-58
2023/06/16 06:32:30;;;;;;;16.08;6.35;;;;;;;22.42;60.09;100809.84;8303734;28;20042;-58
2023/06/16 06:36:33;;;;;;;9.00;5.30;;;;;;;22.41;59.23;100813.69;8304351;28;20065;-58
2023/06/16 06:40:35;;;;;;;15.38;5.40;;;;;;;22.81;59.58;100811.84;8303309;28;20038;-58
2023/06/16 06:44:36;;;;;;;16.25;6.10;;;;;;;22.89;58.03;100826.25;8311159;28;20087;-58
2023/06/16 06:48:41;;;;;;;17.38;6.15;;;;;;;22.88;57.82;100821.78;8308876;28;20060;-58
2023/06/16 06:52:44;;;;;;;16.10;5.78;;;;;;;23.22;56.65;100823.47;8307954;28;20044;-58
2023/06/16 06:56:45;;;;;;;12.75;6.00;;;;;;;23.62;58.27;100826.97;8308713;28;20041;-58
2023/06/16 07:00:45;;;;;;;18.60;6.80;;;;;;;23.81;57.46;100823.28;8309947;28;20045;-58
2023/06/16 07:04:45;;;;;;;24.77;8.10;;;;;;;23.92;57.37;100822.63;8309585;28;20069;-58
2023/06/16 07:08:46;;;;;;;14.60;4.95;;;;;;;24.02;56.58;100821.13;8308030;28;20045;-58
2023/06/16 07:12:46;;;;;;;15.35;4.90;;;;;;;24.11;55.61;100830.84;8316643;28;20065;-58
2023/06/16 07:16:47;;;;;;;10.90;5.57;;;;;;;24.18;56.46;100836.34;8309097;28;20407;-58
2023/06/16 07:20:47;;;;;;;13.52;5.57;;;;;;;24.29;57.10;100841.16;8309378;28;20304;-58
2023/06/16 07:24:47;;;;;;;17.02;6.00;;;;;;;24.58;55.75;100843.31;8303910;28;20038;-58
2023/06/16 07:28:48;;;;;;;13.25;5.60;;;;;;;24.86;53.88;100836.28;8311019;28;20037;-58
2023/06/16 07:32:49;;;;;;;14.38;5.80;;;;;;;24.73;54.63;100847.47;8306302;28;20038;-62
2023/06/16 07:36:50;;;;;;;12.00;5.68;;;;;;;24.89;54.79;100846.91;8308946;28;20041;-63
2023/06/16 07:40:50;;;;;;;19.13;5.90;;;;;;;25.19;53.84;100847.09;8309486;28;20047;-63
2023/06/16 07:44:52;;;;;;;12.55;5.63;;;;;;;25.03;53.13;100847.66;8306446;28;20069;-63
2023/06/16 07:48:52;;;;;;;12.35;5.68;;;;;;;25.18;54.75;100839.03;8310206;28;20050;-58
2023/06/16 07:52:53;;;;;;;10.60;5.50;;;;;;;24.97;53.76;100843.88;8306094;28;20041;-59
2023/06/16 07:56:53;;;;;;;10.90;5.10;;;;;;;25.63;52.84;100838.56;8305035;28;20041;-60
2023/06/16 08:00:54;;;;;;;7.75;4.82;;;;;;;25.94;53.67;100840.28;8318873;28;20037;-59
2023/06/16 08:04:54;;;;;;;12.60;5.10;;;;;;;25.91;54.83;100836.06;8308074;28;20174;-59
2023/06/16 08:08:56;;;;;;;16.93;5.23;;;;;;;25.95;51.68;100831.75;8305002;28;20045;-59
2023/06/16 08:12:56;;;;;;;9.95;4.88;;;;;;;26.43;51.25;100828.97;8305031;28;20558;-59
2023/06/16 08:16:57;;;;;;;8.73;4.70;;;;;;;26.60;52.32;100822.50;8303261;28;20080;-59
2023/06/16 08:20:57;;;;;;;5.22;4.43;;;;;;;26.41;50.22;100820.91;8306106;28;20878;-65
2023/06/16 08:24:58;;;;;;;6.72;4.68;;;;;;;26.61;50.21;100824.22;8304646;28;20483;-65
2023/06/16 08:28:59;;;;;;;9.35;3.75;;;;;;;26.64;49.28;100821.00;8307918;28;20033;-65
2023/06/16 08:33:00;;;;;;;6.38;3.50;;;;;;;26.79;48.68;100824.19;8307348;28;20042;-65
2023/06/16 08:37:02;;;;;;;7.57;4.13;;;;;;;27.09;49.13;100823.22;8306126;28;20042;-65
2023/06/16 08:41:06;;;;;;;7.75;3.47;;;;;;;26.97;47.23;100819.59;8308824;28;20049;-65
2023/06/16 08:45:08;;;;;;;5.55;3.90;;;;;;;27.27;47.47;100820.38;8305482;28;20715;-65
2023/06/16 08:49:09;;;;;;;6.55;3.55;;;;;;;27.41;48.23;100811.53;8308269;28;20049;-65
2023/06/16 08:53:12;;;;;;;6.43;4.22;;;;;;;26.99;46.83;100817.44;8304992;28;20046;-65
2023/06/16 08:57:13;;;;;;;5.47;3.88;;;;;;;27.34;48.29;100821.94;8305338;28;20049;-65
2023/06/16 09:01:15;;;;;;;5.60;4.10;;;;;;;27.53;48.26;100808.78;8305898;28;20061;-65
2023/06/16 09:05:16;;;;;;;9.68;3.65;;;;;;;27.47;49.56;100810.56;8305171;28;20176;-65
2023/06/16 09:09:17;;;;;;;7.50;4.43;;;;;;;27.39;48.61;100815.66;8304981;28;20044;-65
2023/06/16 09:13:18;;;;;;;10.13;3.60;;;;;;;27.70;48.33;100812.47;8303077;28;20034;-65
2023/06/16 09:17:24;;;;;;;8.27;3.67;;;;;;;27.47;46.43;100809.75;8302126;28;20050;-65
2023/06/16 09:21:27;;;;;;;5.97;3.85;;;;;;;27.55;45.12;100812.13;8303019;28;20116;-59
2023/06/16 09:25:32;;;;;;;5.90;4.00;;;;;;;27.78;44.54;100812.09;8302542;28;20048;-59
2023/06/16 09:29:32;;;;;;;6.72;3.13;;;;;;;28.17;45.56;100800.13;8302360;28;20053;-59
2023/06/16 09:33:33;;;;;;;5.60;3.83;;;;;;;27.90;48.03;100805.44;8304606;28;20064;-59
2023/06/16 09:37:34;;;;;;;7.28;2.97;;;;;;;28.22;43.34;100805.78;8302201;28;20049;-59
2023/06/16 09:41:34;;;;;;;5.15;3.20;;;;;;;28.11;43.50;100793.63;8304301;28;20037;-59
2023/06/16 09:45:35;;;;;;;6.07;2.85;;;;;;;28.42;43.70;100808.97;8301562;28;20042;-59
2023/06/16 09:49:36;;;;;;;5.68;3.00;;;;;;;28.92;43.67;100786.75;8303746;28;20034;-60
2023/06/16 09:53:37;;;;;;;5.15;3.70;;;;;;;28.73;41.39;100788.13;8296582;28;20076;-59
2023/06/16 09:57:40;;;;;;;5.80;2.83;;;;;;;28.61;41.60;100789.03;8300173;28;20048;-60
2023/06/16 10:01:43;;;;;;;5.82;3.30;;;;;;;29.37;40.35;100791.16;8302047;28;20524;-60
2023/06/16 10:05:48;;;;;;;3.53;3.20;;;;;;;30.20;38.33;100790.88;8300210;28;20547;-59
2023/06/16 10:09:51;;;;;;;7.15;3.45;;;;;;;31.61;37.25;100788.16;8301658;28;20500;-61
2023/06/16 10:13:56;;;;;;;6.15;3.38;;;;;;;33.65;37.76;100794.34;8304093;28;20042;-60
2023/06/16 10:18:03;;;;;;;6.63;3.05;;;;;;;34.98;35.18;100788.56;8301216;28;20038;-60
2023/06/16 10:22:04;;;;;;;3.42;3.10;;;;;;;35.49;34.68;100792.56;8301554;28;20057;-60
2023/06/16 10:26:05;;;;;;;6.78;3.42;;;;;;;34.57;33.10;100785.22;8299224;28;20088;-59
2023/06/16 10:30:09;;;;;;;8.88;3.47;;;;;;;34.95;32.66;100786.34;8301974;28;20046;-60
2023/06/16 10:34:18;;;;;;;5.65;2.95;;;;;;;35.15;33.69;100780.53;8300391;28;20048;-59
2023/06/16 10:38:25;;;;;;;5.07;3.20;;;;;;;34.34;34.69;100779.44;8298920;28;20065;-61
2023/06/16 10:42:25;;;;;;;3.45;3.08;;;;;;;35.43;33.16;100776.91;8300784;28;20030;-60
2023/06/16 10:46:26;;;;;;;3.22;2.75;;;;;;;35.84;34.63;100764.03;8302297;28;20042;-60
2023/06/16 10:50:43;;;;;;;11.90;3.67;;;;;;;35.70;33.30;100754.59;8317959;28;20056;-60
2023/06/16 10:54:48;;;;;;;6.18;3.45;;;;;;;35.18;34.70;100760.25;8298119;28;20038;-60
2023/06/16 10:58:57;;;;;;;7.28;3.30;;;;;;;34.92;33.02;100758.84;8302625;28;20038;-62
2023/06/16 11:03:00;;;;;;;5.63;3.28;;;;;;;34.51;32.58;100757.47;8300457;28;20045;-60
2023/06/16 11:07:08;;;;;;;4.07;3.50;;;;;;;34.15;33.56;100758.81;8300779;28;20033;-60
2023/06/16 11:11:09;;;;;;;3.75;3.35;;;;;;;34.19;33.56;100760.75;8301112;28;20045;-62
2023/06/16 11:15:10;;;;;;;7.22;3.53;;;;;;;34.55;33.21;100756.56;8300196;28;20053;-60
2023/06/16 11:19:10;;;;;;;5.40;3.58;;;;;;;35.14;31.99;100750.72;8301361;28;20546;-66
2023/06/16 11:23:10;;;;;;;4.47;3.43;;;;;;;36.45;33.69;100747.97;8296888;28;20053;-59
2023/06/16 11:27:11;;;;;;;5.25;3.38;;;;;;;35.95;33.75;100742.22;8301941;28;20280;-60
2023/06/16 11:31:13;;;;;;;4.15;3.75;;;;;;;36.31;32.41;100738.59;8307096;28;20119;-60
2023/06/16 11:35:13;;;;;;;5.05;3.58;;;;;;;35.19;31.95;100745.06;8306504;28;20042;-60
2023/06/16 11:39:14;;;;;;;7.35;3.92;;;;;;;34.26;32.99;100749.16;8308504;28;20406;-60
2023/06/16 11:43:16;;;;;;;6.15;3.13;;;;;;;34.73;33.13;100749.41;8304842;28;20033;-60
2023/06/16 11:47:17;;;;;;;4.30;3.60;;;;;;;35.31;33.34;100740.69;8306590;28;20030;-60
2023/06/16 11:51:18;;;;;;;5.65;3.30;;;;;;;36.12;31.87;100742.53;8303134;28;20051;-60
2023/06/16 11:55:20;;;;;;;4.25;3.38;;;;;;;35.60;33.59;100737.84;8304514;28;20038;-61
2023/06/16 11:59:21;;;;;;;5.95;3.47;;;;;;;35.33;32.61;100731.97;8304665;28;20408;-64
2023/06/16 12:03:24;;;;;;;6.45;3.55;;;;;;;34.83;32.70;100721.22;8307876;28;20484;-65
2023/06/16 12:07:25;;;;;;;5.45;3.60;;;;;;;36.17;34.58;100725.56;8304752;28;20045;-64
2023/06/16 12:11:28;;;;;;;9.40;3.80;;;;;;;33.76;33.52;100728.66;8308435;28;20045;-65
2023/06/16 12:15:28;;;;;;;7.37;3.67;;;;;;;32.13;35.03;100712.56;8305927;28;20075;-65
2023/06/16 12:19:29;;;;;;;6.88;3.67;;;;;;;30.51;37.41;100713.84;8301440;28;20281;-65
2023/06/16 12:23:34;;;;;;;5.78;3.70;;;;;;;29.60;37.81;100707.28;8303284;28;20084;-66
2023/06/16 12:27:35;;;;;;;5.35;4.07;;;;;;;29.40;39.24;100711.75;8301621;28;20492;-65
2023/06/16 12:31:48;;;;;;;5.95;3.75;;;;;;;29.08;39.37;100703.22;8305431;28;20129;-66
2023/06/16 12:35:48;;;;;;;4.65;3.58;;;;;;;29.19;39.00;100705.06;8303550;28;20500;-64
2023/06/16 12:40:03;;;;;;;8.37;3.47;;;;;;;29.26;39.31;100700.16;8304847;28;20069;-64
2023/06/16 12:44:04;;;;;;;4.80;3.67;;;;;;;29.06;38.01;100697.06;8303130;28;20285;-64
2023/06/16 12:48:05;;;;;;;5.70;3.25;;;;;;;29.05;38.68;100692.59;8303703;28;20455;-64
2023/06/16 12:52:07;;;;;;;4.22;3.40;;;;;;;29.22;39.06;100699.00;8302429;28;20045;-64
2023/06/16 12:56:09;;;;;;;8.88;3.83;;;;;;;29.11;38.78;100691.56;8304086;28;20065;-65
2023/06/16 13:00:11;;;;;;;9.10;3.63;;;;;;;29.47;38.06;100685.38;8305092;28;20037;-66
2023/06/16 13:04:12;;;;;;;7.03;3.47;;;;;;;28.78;38.41;100690.78;8302837;28;20126;-65
2023/06/16 13:08:12;;;;;;;11.98;3.92;;;;;;;28.75;39.26;100683.75;8302915;28;20046;-65
2023/06/16 13:12:14;;;;;;;5.28;3.50;;;;;;;28.78;38.19;100677.69;8301603;28;20049;-65
2023/06/16 13:16:17;;;;;;;4.22;3.33;;;;;;;28.81;38.86;100679.97;8300852;28;20044;-65
2023/06/16 13:20:17;;;;;;;5.60;3.80;;;;;;;28.77;37.57;100678.81;8303010;28;20488;-65
2023/06/16 13:24:18;;;;;;;4.18;3.70;;;;;;;28.61;37.56;100685.22;8299033;28;20042;-65
2023/06/16 13:28:19;;;;;;;7.65;4.28;;;;;;;28.40;37.44;100672.91;8303318;28;20124;-63
2023/06/16 13:32:19;;;;;;;5.45;3.75;;;;;;;28.90;41.55;100677.59;8302114;28;20037;-65
2023/06/16 13:36:21;;;;;;;6.03;3.72;;;;;;;29.22;38.20;100671.13;8301550;28;20029;-63
2023/06/16 13:40:24;;;;;;;6.00;3.70;;;;;;;29.11;37.63;100662.88;8303707;28;20099;-64
2023/06/16 13:44:25;;;;;;;6.55;4.20;;;;;;;29.05;38.24;100653.63;8302060;28;20093;-64
2023/06/16 13:48:25;;;;;;;6.25;3.70;;;;;;;29.45;37.69;100654.13;8302928;28;20033;-64
2023/06/16 13:52:26;;;;;;;6.25;3.85;;;;;;;29.63;38.04;100656.59;8284333;28;20061;-63
2023/06/16 13:56:27;;;;;;;7.95;3.92;;;;;;;29.44;37.51;100662.75;8302456;28;20056;-64
2023/06/16 14:00:27;;;;;;;5.95;4.63;;;;;;;28.90;39.71;100650.59;8303066;28;20338;-64
2023/06/16 14:04:28;;;;;;;9.63;4.00;;;;;;;28.98;38.74;100647.38;8300444;28;20457;-64
2023/06/16 14:08:29;;;;;;;5.57;3.85;;;;;;;29.16;37.75;100638.75;8301275;28;20033;-63
2023/06/16 14:12:30;;;;;;;8.63;4.28;;;;;;;29.45;38.29;100634.63;8302273;28;20037;-64
2023/06/16 14:16:30;;;;;;;10.88;4.72;;;;;;;29.01;37.26;100641.28;8302876;28;20038;-64
2023/06/16 14:20:30;;;;;;;7.03;4.13;;;;;;;28.84;39.73;100631.31;8299438;28;20173;-64
2023/06/16 14:24:31;;;;;;;8.13;4.43;;;;;;;28.69;37.10;100626.34;8300024;28;20046;-64
2023/06/16 14:28:31;;;;;;;5.97;3.78;;;;;;;28.79;37.99;100631.22;8300473;28;20041;-64
2023/06/16 14:32:33;;;;;;;7.32;4.22;;;;;;;28.46;37.76;100626.56;8300388;28;20041;-64
2023/06/16 14:36:33;;;;;;;7.97;3.70;;;;;;;28.97;38.77;100623.38;8302912;28;20046;-64
2023/06/16 14:40:35;;;;;;;6.10;3.38;;;;;;;28.70;38.53;100622.47;8300377;28;20092;-64
2023/06/16 14:44:35;;;;;;;7.60;4.55;;;;;;;28.68;38.04;100627.44;8300967;28;20045;-64
2023/06/16 14:48:36;;;;;;;5.07;3.83;;;;;;;28.79;38.19;100607.03;8302496;28;20081;-67
2023/06/16 14:52:36;;;;;;;8.73;4.38;;;;;;;28.44;37.45;100617.56;8297399;28;20047;-66
2023/06/16 14:56:37;;;;;;;10.75;4.82;;;;;;;28.43;39.05;100615.91;8304358;28;20072;-66
2023/06/16 15:00:38;;;;;;;6.25;3.72;;;;;;;28.18;40.66;100612.72;8296827;28;20038;-66
2023/06/16 15:04:38;;;;;;;12.73;4.57;;;;;;;28.39;39.83;100603.59;8310076;28;20424;-63
2023/06/16 15:08:38;;;;;;;8.55;4.35;;;;;;;28.36;38.01;100609.69;8306299;28;20420;-60
2023/06/16 15:12:39;;;;;;;6.47;4.22;;;;;;;28.42;38.05;100603.91;8304861;28;20038;-60
2023/06/16 15:16:39;;;;;;;7.22;4.10;;;;;;;28.60;39.31;100600.03;8307556;28;20033;-60
2023/06/16 15:20:40;;;;;;;9.23;3.97;;;;;;;28.83;38.79;100588.69;8296661;28;20046;-60
2023/06/16 15:24:40;;;;;;;7.70;4.35;;;;;;;28.84;38.28;100601.50;8301467;28;20125;-60
2023/06/16 15:28:41;;;;;;;6.43;3.83;;;;;;;28.77;37.84;100600.84;8307396;28;20116;-60
2023/06/16 15:32:42;;;;;;;5.75;3.88;;;;;;;28.55;37.91;100594.41;8306032;28;20042;-60
2023/06/16 15:36:42;;;;;;;5.40;3.95;;;;;;;28.52;39.50;100597.72;8300747;28;20264;-60
2023/06/16 15:40:42;;;;;;;6.88;3.47;;;;;;;28.55;39.35;100589.69;8308463;28;20064;-60
2023/06/16 15:44:45;;;;;;;17.67;4.32;;;;;;;28.74;39.22;100584.66;8305966;28;20038;-65
2023/06/16 15:48:46;;;;;;;3.70;3.40;;;;;;;28.93;39.35;100588.00;8303518;28;20038;-65
2023/06/16 15:52:46;;;;;;;4.80;3.70;;;;;;;28.85;38.83;100580.94;8302109;28;20073;-65
2023/06/16 15:56:47;;;;;;;7.87;3.63;;;;;;;28.70;38.46;100583.50;8301662;28;20412;-65
2023/06/16 16:00:47;;;;;;;9.90;3.53;;;;;;;28.71;38.70;100579.63;8304746;28;20779;-65
2023/06/16 16:04:47;;;;;;;4.40;3.30;;;;;;;28.67;39.85;100582.06;8304882;28;20276;-65
2023/06/16 16:08:48;;;;;;;4.20;3.80;;;;;;;28.58;38.37;100577.22;8303636;28;20279;-65
2023/06/16 16:12:48;;;;;;;5.50;3.95;;;;;;;28.59;39.32;100576.09;8309942;28;20033;-65
2023/06/16 16:16:49;;;;;;;7.50;3.37;;;;;;;28.55;38.68;100575.75;8304356;28;20090;-63
2023/06/16 16:20:49;;;;;;;7.15;3.60;;;;;;;28.47;38.80;100567.88;8306273;28;20276;-65
2023/06/16 16:24:51;;;;;;;4.25;3.85;;;;;;;28.50;39.32;100567.38;8300999;28;20100;-64
2023/06/16 16:28:51;;;;;;;7.78;3.38;;;;;;;28.48;39.10;100563.13;8305556;28;20046;-65
2023/06/16 16:32:52;;;;;;;6.07;3.42;;;;;;;28.49;40.31;100564.84;8302780;28;20056;-65
2023/06/16 16:36:52;;;;;;;5.25;3.72;;;;;;;28.37;39.37;100561.28;8303746;28;20033;-65
2023/06/16 16:40:53;;;;;;;7.82;3.53;;;;;;;28.39;38.64;100559.09;8304231;28;20107;-60
2023/06/16 16:44:53;;;;;;;6.45;3.33;;;;;;;28.42;38.99;100558.59;8306024;28;20049;-67
2023/06/16 16:48:54;;;;;;;4.97;3.63;;;;;;;28.33;39.13;100562.91;8306162;28;20480;-67
2023/06/16 16:52:54;;;;;;;8.52;3.58;;;;;;;28.40;39.88;100560.78;8302429;28;20280;-66
2023/06/16 16:56:55;;;;;;;8.38;3.45;;;;;;;28.18;38.54;100546.78;8301368;28;20077;-66
2023/06/16 17:00:55;;;;;;;5.55;3.55;;;;;;;28.31;39.34;100545.63;8304978;28;20110;-60
2023/06/16 17:04:58;;;;;;;4.07;3.60;;;;;;;28.54;40.31;100548.19;8301646;28;20128;-62
2023/06/16 17:08:58;;;;;;;5.80;3.63;;;;;;;28.36;39.65;100551.25;8298886;28;20288;-60
2023/06/16 17:12:59;;;;;;;4.88;3.20;;;;;;;28.22;38.84;100548.00;8300908;28;20103;-65
2023/06/16 17:16:59;;;;;;;6.30;4.05;;;;;;;28.15;39.32;100557.59;8295489;28;20061;-64
2023/06/16 17:21:00;;;;;;;3.87;3.37;;;;;;;28.07;39.47;100560.81;8300411;28;20041;-60
2023/06/16 17:25:00;;;;;;;3.95;3.42;;;;;;;28.04;39.27;100552.97;8298643;28;20779;-60
2023/06/16 17:29:00;;;;;;;4.78;3.72;;;;;;;28.02;39.18;100557.94;8307553;28;20072;-59
2023/06/16 17:33:01;;;;;;;7.65;4.30;;;;;;;27.84;39.71;100555.41;8279471;28;20060;-59
2023/06/16 17:37:02;;;;;;;6.50;3.88;;;;;;;27.73;38.92;100550.75;8261534;28;20275;-59
2023/06/16 17:41:02;;;;;;;6.65;3.35;;;;;;;27.74;41.59;100541.31;8269842;28;20540;-64
2023/06/16 17:45:03;;;;;;;10.75;4.35;;;;;;;27.62;40.51;100537.75;8265160;28;20065;-65
2023/06/16 17:49:06;;;;;;;18.08;4.35;;;;;;;27.78;40.74;100550.84;8270397;28;20388;-65
2023/06/16 17:53:07;;;;;;;6.10;3.95;;;;;;;27.63;42.37;100553.34;8269035;28;20046;-64
2023/06/16 17:57:07;;;;;;;15.52;4.88;;;;;;;27.63;43.12;100553.34;8297449;28;20083;-61
2023/06/16 18:01:08;;;;;;;10.68;4.57;;;;;;;27.63;41.81;100553.34;8299856;28;20050;-64
2023/06/16 18:05:09;;;;;;;4.70;3.30;;;;;;;27.52;41.35;100552.31;8300641;28;20057;-65
2023/06/16 18:09:09;;;;;;;5.93;3.95;;;;;;;27.44;40.73;100544.38;8303031;28;20053;-64
2023/06/16 18:13:10;;;;;;;9.13;5.18;;;;;;;27.44;41.88;100540.78;8301829;28;20041;-64
2023/06/16 18:17:10;;;;;;;12.40;7.70;;;;;;;27.38;41.64;100539.81;8297285;28;20034;-65
2023/06/16 18:21:13;;;;;;;7.50;5.00;;;;;;;27.31;41.67;100538.28;8310780;28;20046;-64
2023/06/16 18:25:13;;;;;;;5.90;4.15;;;;;;;27.21;41.81;100538.06;8298041;28;20038;-64
2023/06/16 18:29:14;;;;;;;5.82;4.15;;;;;;;27.85;44.41;100538.47;8301070;28;20120;-61
2023/06/16 18:33:15;;;;;;;5.88;3.53;;;;;;;27.75;42.58;100545.78;8300868;28;20171;-66
2023/06/16 18:37:16;;;;;;;6.35;3.90;;;;;;;27.99;45.07;100536.22;8302357;28;20038;-65